createdAt,value
2019-04-30T00:02:09.613Z,29.43
2019-04-30T00:04:42.692Z,29.90
2019-04-30T00:07:15.493Z,31.37
2019-04-30T00:09:49.329Z,30.50
2019-04-30T00:12:17.642Z,29.13
2019-04-30T00:14:47.416Z,30.17
2019-04-30T00:17:19.691Z,33.30
2019-04-30T00:19:50.378Z,29.87
2019-04-30T00:22:31.100Z,29.50
2019-04-30T00:24:51.436Z,26.67
2019-04-30T00:27:25.761Z,27.07
2019-04-30T00:29:52.828Z,27.60
2019-04-30T00:32:22.544Z,25.47
2019-04-30T00:34:52.628Z,28.77
2019-04-30T00:37:22.375Z,32.77
2019-04-30T00:39:53.079Z,27.00
2019-04-30T00:42:24.320Z,28.37
2019-04-30T00:44:55.354Z,28.30
2019-04-30T00:47:25.730Z,31.83
2019-04-30T00:49:58.788Z,30.53
2019-04-30T00:52:29.574Z,26.47
2019-04-30T00:55:00.359Z,27.60
2019-04-30T00:57:30.241Z,28.30
2019-04-30T00:59:59.914Z,32.30
2019-04-30T01:03:00.943Z,29.40
2019-04-30T01:05:32.504Z,31.07
2019-04-30T01:08:02.401Z,31.27
2019-04-30T01:10:32.560Z,34.50
2019-04-30T01:13:08.037Z,31.57
2019-04-30T01:15:34.081Z,30.83
2019-04-30T01:18:03.916Z,33.10
2019-04-30T01:20:34.425Z,32.30
2019-04-30T01:23:08.008Z,33.93
2019-04-30T01:25:35.877Z,36.77
2019-04-30T01:28:05.594Z,38.13
2019-04-30T01:30:35.308Z,33.93
2019-04-30T01:33:05.181Z,39.17
2019-04-30T01:35:35.258Z,36.37
2019-04-30T01:38:11.112Z,31.80
2019-04-30T01:40:38.392Z,34.93
2019-04-30T01:43:09.095Z,35.00
2019-04-30T01:45:39.511Z,35.30
2019-04-30T01:48:12.614Z,37.97
2019-04-30T01:50:42.005Z,38.10
2019-04-30T01:53:13.373Z,35.30
2019-04-30T01:56:12.219Z,37.77
2019-04-30T01:58:54.515Z,37.40
2019-04-30T02:01:26.057Z,35.87
2019-04-30T02:03:56.267Z,32.93
2019-04-30T02:06:26.125Z,35.10
2019-04-30T02:08:55.936Z,34.67
2019-04-30T02:11:25.732Z,33.47
2019-04-30T02:13:55.961Z,36.73
2019-04-30T02:16:26.099Z,36.40
2019-04-30T02:18:55.960Z,38.50
2019-04-30T02:21:25.730Z,39.30
2019-04-30T02:23:56.034Z,38.67
2019-04-30T02:26:25.932Z,41.40
2019-04-30T02:28:55.654Z,41.77
2019-04-30T02:31:25.471Z,40.00
2019-04-30T02:34:01.040Z,49.47
2019-04-30T02:36:46.555Z,39.10
2019-04-30T02:39:16.186Z,36.60
2019-04-30T02:41:47.221Z,40.87
2019-04-30T02:44:19.632Z,44.57
2019-04-30T02:46:51.362Z,36.50
2019-04-30T02:49:22.855Z,36.87
2019-04-30T02:51:53.815Z,39.67
2019-04-30T02:54:31.192Z,40.93
2019-04-30T02:57:25.769Z,38.93
2019-04-30T03:00:06.402Z,41.17
2019-04-30T03:02:36.281Z,40.20
2019-04-30T03:05:06.807Z,37.43
2019-04-30T03:07:36.600Z,38.33
2019-04-30T03:10:09.771Z,39.43
2019-04-30T03:12:40.445Z,37.80
2019-04-30T03:15:10.529Z,42.67
2019-04-30T03:18:01.414Z,44.63
2019-04-30T03:20:59.864Z,38.97
2019-04-30T03:23:30.207Z,38.97
2019-04-30T03:26:00.075Z,36.87
2019-04-30T03:28:30.257Z,39.30
2019-04-30T03:31:04.520Z,37.27
2019-04-30T03:33:33.025Z,37.20
2019-04-30T03:36:02.920Z,38.23
2019-04-30T03:38:32.821Z,42.23
2019-04-30T03:41:21.641Z,37.17
2019-04-30T03:43:51.767Z,37.23
2019-04-30T03:46:21.428Z,36.60
2019-04-30T03:48:51.216Z,37.70
2019-04-30T03:51:21.202Z,44.20
2019-04-30T03:53:50.945Z,38.30
2019-04-30T03:56:22.890Z,38.30
2019-04-30T03:58:52.265Z,37.83
2019-04-30T04:01:40.001Z,38.43
2019-04-30T04:04:21.742Z,35.17
2019-04-30T04:07:00.249Z,45.17
2019-04-30T04:09:40.106Z,39.83
2019-04-30T04:12:22.390Z,41.60
2019-04-30T04:14:52.750Z,42.10
2019-04-30T04:17:23.095Z,43.10
2019-04-30T04:19:52.929Z,42.97
2019-04-30T04:22:23.532Z,35.23
2019-04-30T04:24:53.395Z,41.10
2019-04-30T04:27:23.229Z,48.53
2019-04-30T04:29:53.001Z,40.57
2019-04-30T04:32:24.211Z,40.90
2019-04-30T04:34:54.386Z,36.87
2019-04-30T04:37:24.147Z,38.30
2019-04-30T04:39:53.895Z,36.37
2019-04-30T04:42:23.975Z,36.43
2019-04-30T04:44:53.722Z,35.20
2019-04-30T04:47:23.806Z,39.30
2019-04-30T04:49:54.190Z,37.63
2019-04-30T04:52:24.329Z,38.33
2019-04-30T04:54:54.288Z,36.57
2019-04-30T04:57:24.654Z,34.03
2019-04-30T04:59:54.429Z,34.23
2019-04-30T05:02:32.805Z,37.60
2019-04-30T05:05:03.385Z,36.03
2019-04-30T05:07:33.200Z,37.97
2019-04-30T05:10:02.971Z,35.87
2019-04-30T05:12:32.798Z,34.43
2019-04-30T05:15:02.604Z,38.23
2019-04-30T05:17:32.533Z,41.60
2019-04-30T05:20:02.408Z,38.10
2019-04-30T05:22:32.584Z,34.27
2019-04-30T05:25:03.081Z,37.80
2019-04-30T05:27:33.418Z,37.53
2019-04-30T05:30:03.321Z,41.40
2019-04-30T05:32:33.196Z,39.00
2019-04-30T05:35:03.700Z,37.57
2019-04-30T05:37:33.484Z,37.97
2019-04-30T05:40:03.248Z,42.40
2019-04-30T05:42:33.045Z,39.40
2019-04-30T05:45:03.481Z,40.53
2019-04-30T05:47:33.235Z,40.27
2019-04-30T05:50:02.817Z,37.57
2019-04-30T05:52:32.637Z,36.40
2019-04-30T05:55:02.489Z,37.97
2019-04-30T05:57:32.434Z,32.30
2019-04-30T06:00:02.347Z,36.37
2019-04-30T06:02:34.091Z,36.30
2019-04-30T06:05:03.573Z,36.63
2019-04-30T06:07:33.320Z,32.43
2019-04-30T06:10:11.625Z,39.70
2019-04-30T06:13:00.418Z,41.13
2019-04-30T06:15:34.178Z,36.80
2019-04-30T06:18:11.509Z,37.03
2019-04-30T06:20:38.532Z,32.83
2019-04-30T06:23:09.596Z,33.97
2019-04-30T06:25:55.711Z,36.50
2019-04-30T06:28:12.233Z,35.40
2019-04-30T06:30:42.556Z,37.30
2019-04-30T06:33:12.309Z,37.60
2019-04-30T06:35:42.359Z,43.23
2019-04-30T06:38:12.288Z,39.10
2019-04-30T06:40:42.637Z,39.37
2019-04-30T06:43:13.253Z,41.67
2019-04-30T06:45:44.508Z,44.67
2019-04-30T06:48:19.917Z,46.37
2019-04-30T06:50:50.029Z,46.47
2019-04-30T06:53:19.865Z,45.83
2019-04-30T06:55:50.313Z,48.33
2019-04-30T06:58:20.845Z,46.33
2019-04-30T07:00:50.777Z,49.70
2019-04-30T07:03:20.591Z,41.90
2019-04-30T07:05:50.718Z,53.90
2019-04-30T07:08:55.867Z,40.50
2019-04-30T07:11:35.856Z,42.67
2019-04-30T07:14:05.566Z,44.63
2019-04-30T07:16:35.473Z,39.67
2019-04-30T07:19:05.328Z,37.80
2019-04-30T07:21:36.581Z,39.00
2019-04-30T07:24:09.293Z,36.17
2019-04-30T07:26:39.423Z,33.67
2019-04-30T07:29:09.923Z,32.83
2019-04-30T07:31:40.049Z,34.50
2019-04-30T07:34:10.092Z,36.43
2019-04-30T08:09:39.111Z,20.20
2019-04-30T08:48:53.918Z,12.40
2019-04-30T08:51:23.891Z,13.15
2019-04-30T08:56:22.761Z,12.80
2019-04-30T08:58:54.873Z,16.63
2019-04-30T09:01:24.220Z,19.60
2019-04-30T10:12:19.663Z,30.37
2019-04-30T10:14:49.725Z,35.13
2019-04-30T10:17:38.125Z,36.50
2019-04-30T10:25:10.082Z,31.20
2019-04-30T12:59:19.235Z,40.37
2019-04-30T15:39:10.794Z,31.75
2019-04-30T15:41:40.583Z,28.90
2019-04-30T15:46:39.662Z,30.00
2019-04-30T15:51:50.516Z,29.10
2019-04-30T15:54:21.008Z,33.20
2019-04-30T15:56:51.522Z,35.93
2019-04-30T16:25:49.098Z,32.00
2019-04-30T16:33:19.501Z,30.13
2019-04-30T16:35:51.066Z,32.85
2019-04-30T16:38:21.245Z,36.70
2019-04-30T16:40:51.262Z,30.63
2019-04-30T16:43:21.196Z,33.97
2019-04-30T16:45:50.971Z,34.23
2019-04-30T16:48:20.797Z,33.80
2019-04-30T16:50:51.198Z,35.33
2019-04-30T16:53:21.138Z,37.93
2019-04-30T16:55:51.342Z,32.10
2019-04-30T16:58:21.288Z,33.50
2019-04-30T17:00:51.070Z,31.67
2019-04-30T17:03:28.869Z,29.57
2019-04-30T17:06:04.987Z,29.27
2019-04-30T17:08:42.234Z,31.23
2019-04-30T17:11:19.766Z,31.70
2019-04-30T17:13:55.587Z,40.53
2019-04-30T17:16:25.752Z,32.83
2019-04-30T17:18:55.736Z,32.07
2019-04-30T17:21:25.524Z,32.73
2019-04-30T17:23:55.464Z,31.47
2019-04-30T17:26:25.294Z,34.40
2019-04-30T17:28:55.152Z,34.00
2019-04-30T17:31:25.287Z,34.00
2019-04-30T17:33:55.022Z,35.37
2019-04-30T17:36:24.749Z,28.67
2019-04-30T17:38:54.541Z,34.60
2019-04-30T17:41:24.287Z,35.90
2019-04-30T17:43:53.967Z,34.17
2019-04-30T17:46:23.812Z,35.53
2019-04-30T17:48:53.631Z,35.40
2019-04-30T17:51:23.422Z,34.27
2019-04-30T17:54:10.862Z,39.87
2019-04-30T17:56:40.853Z,38.10
2019-04-30T17:59:10.549Z,32.83
2019-04-30T18:01:41.883Z,32.43
2019-04-30T18:04:11.725Z,32.07
2019-04-30T18:06:41.519Z,36.40
2019-04-30T18:09:11.755Z,34.03
2019-04-30T18:11:41.603Z,32.63
2019-04-30T18:14:11.343Z,40.33
2019-04-30T18:16:41.220Z,35.20
2019-04-30T18:19:30.194Z,33.70
2019-04-30T18:22:09.513Z,35.20
2019-04-30T18:24:59.174Z,34.43
2019-04-30T18:27:42.849Z,32.90
2019-04-30T18:30:06.480Z,29.53
2019-04-30T18:32:36.307Z,34.40
2019-04-30T18:35:06.654Z,39.80
2019-04-30T18:37:36.433Z,35.10
2019-04-30T18:40:06.933Z,35.40
2019-04-30T18:42:36.794Z,35.63
2019-04-30T18:45:06.962Z,35.60
2019-04-30T18:47:36.870Z,31.57
2019-04-30T18:50:09.224Z,34.97
2019-04-30T18:52:40.379Z,36.03
2019-04-30T18:55:10.414Z,30.87
2019-04-30T18:57:40.333Z,30.03
2019-04-30T19:00:10.942Z,33.90
2019-04-30T19:02:41.344Z,36.37
2019-04-30T19:05:15.948Z,33.73
2019-04-30T19:07:52.326Z,39.57
2019-04-30T19:10:53.313Z,33.83
2019-04-30T19:13:41.156Z,31.90
2019-04-30T19:16:49.555Z,39.67
2019-04-30T19:19:25.674Z,36.63
2019-04-30T19:21:55.658Z,32.40
2019-04-30T19:24:25.408Z,35.07
2019-04-30T19:26:55.290Z,35.87
2019-04-30T19:29:25.339Z,35.43
2019-04-30T19:31:55.751Z,35.23
2019-04-30T19:34:28.765Z,38.43
2019-04-30T19:36:58.596Z,32.80
2019-04-30T19:39:29.285Z,36.00
2019-04-30T19:42:01.007Z,31.63
2019-04-30T19:44:32.342Z,34.50
2019-04-30T19:47:02.647Z,34.10
2019-04-30T19:49:32.455Z,39.53
2019-04-30T19:52:08.631Z,40.33
2019-04-30T19:54:33.640Z,33.90
2019-04-30T19:57:03.722Z,33.10
2019-04-30T19:59:33.529Z,36.17
2019-04-30T20:02:05.319Z,38.60
2019-04-30T20:04:36.809Z,35.43
2019-04-30T20:07:08.711Z,35.23
2019-04-30T20:09:38.023Z,34.80
2019-04-30T20:12:07.721Z,39.60
2019-04-30T20:14:39.073Z,38.60
2019-04-30T20:17:09.031Z,36.43
2019-04-30T20:19:38.848Z,35.37
2019-04-30T20:22:09.545Z,35.60
2019-04-30T20:24:39.503Z,31.07
2019-04-30T20:27:10.233Z,37.80
2019-04-30T20:29:40.912Z,34.27
2019-04-30T20:32:10.716Z,34.23
2019-04-30T20:34:42.127Z,34.10
2019-04-30T20:37:11.971Z,36.67
2019-04-30T20:39:52.929Z,34.57
2019-04-30T20:42:22.658Z,33.87
2019-04-30T20:44:52.731Z,35.40
2019-04-30T20:47:22.484Z,32.20
2019-04-30T20:49:52.319Z,31.97
2019-04-30T20:52:22.111Z,33.20
2019-04-30T20:54:51.989Z,33.90
2019-04-30T20:57:21.700Z,33.00
2019-04-30T20:59:51.902Z,34.20
2019-04-30T21:02:21.730Z,32.90
2019-04-30T21:04:51.904Z,31.97
2019-04-30T21:07:22.353Z,36.10
2019-04-30T21:09:52.174Z,34.77
2019-04-30T21:12:21.988Z,34.70
2019-04-30T21:14:51.735Z,28.70
2019-04-30T21:17:21.550Z,34.63
2019-04-30T21:19:51.482Z,37.23
2019-04-30T21:22:22.866Z,30.87
2019-04-30T21:24:52.932Z,33.67
2019-04-30T21:27:22.834Z,30.90
2019-04-30T21:29:52.947Z,34.73
2019-04-30T21:32:48.637Z,32.23
2019-04-30T21:35:40.430Z,33.93
2019-04-30T21:38:10.208Z,32.17
2019-04-30T21:40:40.062Z,29.90
2019-04-30T21:43:10.202Z,34.07
2019-04-30T21:45:40.216Z,31.60
2019-04-30T21:48:09.958Z,35.80
2019-04-30T21:50:39.872Z,36.07
2019-04-30T21:53:10.023Z,30.27
2019-04-30T21:55:40.090Z,33.40
2019-04-30T21:58:09.821Z,34.60
2019-04-30T22:01:01.497Z,32.90
2019-04-30T22:03:31.410Z,37.10
2019-04-30T22:06:01.276Z,37.37
2019-04-30T22:08:31.037Z,37.87
2019-04-30T22:11:00.803Z,35.47
2019-04-30T22:13:31.092Z,33.07
2019-04-30T22:16:00.841Z,34.67
2019-04-30T22:18:30.962Z,35.77
2019-04-30T22:21:01.066Z,34.73
2019-04-30T22:23:30.770Z,37.13
2019-04-30T22:26:00.589Z,40.80
2019-04-30T22:28:30.850Z,35.63
2019-04-30T22:31:00.854Z,41.83
2019-04-30T22:33:30.963Z,39.07
2019-04-30T22:36:10.898Z,36.87
2019-04-30T22:39:02.865Z,34.67
2019-04-30T22:41:34.234Z,39.00
2019-04-30T22:44:04.125Z,47.00
2019-04-30T22:46:33.944Z,41.33
2019-04-30T22:49:03.712Z,41.73
2019-04-30T22:51:33.515Z,37.10
2019-04-30T22:54:03.275Z,39.40
2019-04-30T22:56:33.426Z,44.03
2019-04-30T22:59:03.080Z,40.80
2019-04-30T23:01:58.046Z,39.27
2019-04-30T23:04:38.997Z,44.33
2019-04-30T23:07:08.995Z,39.40
2019-04-30T23:09:38.745Z,44.33
2019-04-30T23:12:08.671Z,47.23
2019-04-30T23:14:38.399Z,45.30
2019-04-30T23:17:08.177Z,44.80
2019-04-30T23:19:38.223Z,43.03
2019-04-30T23:22:07.880Z,40.77
2019-04-30T23:24:37.811Z,46.00
2019-04-30T23:27:07.603Z,43.63
2019-04-30T23:29:37.434Z,46.00
2019-04-30T23:32:07.524Z,48.40
2019-04-30T23:34:37.740Z,48.47
2019-04-30T23:37:08.671Z,51.73
2019-04-30T23:39:38.424Z,48.87
2019-04-30T23:42:08.238Z,45.00
2019-04-30T23:44:38.319Z,51.87
2019-04-30T23:47:08.467Z,47.13
2019-04-30T23:49:38.540Z,48.47
2019-04-30T23:52:08.151Z,52.33
2019-04-30T23:54:37.937Z,51.77
2019-04-30T23:57:07.723Z,53.03
2019-04-30T23:59:37.728Z,49.70
